sensor_id;sensor_type;location;lat;lon;timestamp;P1;durP1;ratioP1;P2;durP2;ratioP2
11837;SDS011;5978;51.020;6.764;2023-04-03T00:01:06;6.47;;;5.77;;
11837;SDS011;5978;51.020;6.764;2023-04-03T00:03:32;11.02;;;6.53;;
11837;SDS011;5978;51.020;6.764;2023-04-03T00:05:58;8.80;;;6.10;;
11837;SDS011;5978;51.020;6.764;2023-04-03T00:08:24;8.98;;;6.82;;
11837;SDS011;5978;51.020;6.764;2023-04-03T00:10:50;7.50;;;6.47;;
11837;SDS011;5978;51.020;6.764;2023-04-03T00:13:16;7.17;;;6.50;;
11837;SDS011;5978;51.020;6.764;2023-04-03T00:15:41;7.57;;;6.80;;
11837;SDS011;5978;51.020;6.764;2023-04-03T00:18:07;7.87;;;6.90;;
11837;SDS011;5978;51.020;6.764;2023-04-03T00:20:33;7.27;;;6.43;;
11837;SDS011;5978;51.020;6.764;2023-04-03T00:23:00;6.85;;;6.22;;
11837;SDS011;5978;51.020;6.764;2023-04-03T00:25:26;8.00;;;7.15;;
11837;SDS011;5978;51.020;6.764;2023-04-03T00:27:52;6.83;;;6.23;;
11837;SDS011;5978;51.020;6.764;2023-04-03T00:30:18;6.73;;;6.13;;
11837;SDS011;5978;51.020;6.764;2023-04-03T00:32:47;9.88;;;6.57;;
11837;SDS011;5978;51.020;6.764;2023-04-03T00:35:13;7.97;;;6.88;;
11837;SDS011;5978;51.020;6.764;2023-04-03T00:37:40;10.02;;;7.13;;
11837;SDS011;5978;51.020;6.764;2023-04-03T00:40:07;7.80;;;7.00;;
11837;SDS011;5978;51.020;6.764;2023-04-03T00:42:36;8.43;;;7.60;;
11837;SDS011;5978;51.020;6.764;2023-04-03T00:47:28;7.97;;;7.07;;
11837;SDS011;5978;51.020;6.764;2023-04-03T00:49:55;7.90;;;7.10;;
11837;SDS011;5978;51.020;6.764;2023-04-03T00:52:23;7.82;;;6.63;;
11837;SDS011;5978;51.020;6.764;2023-04-03T00:54:53;11.30;;;7.63;;
11837;SDS011;5978;51.020;6.764;2023-04-03T00:57:22;8.18;;;6.80;;
11837;SDS011;5978;51.020;6.764;2023-04-03T00:59:49;8.60;;;7.68;;
11837;SDS011;5978;51.020;6.764;2023-04-03T01:02:19;9.27;;;7.57;;
11837;SDS011;5978;51.020;6.764;2023-04-03T01:04:45;8.00;;;7.07;;
11837;SDS011;5978;51.020;6.764;2023-04-03T01:07:14;9.45;;;7.43;;
11837;SDS011;5978;51.020;6.764;2023-04-03T01:09:46;21.95;;;8.13;;
11837;SDS011;5978;51.020;6.764;2023-04-03T01:15:02;12.50;;;7.68;;
11837;SDS011;5978;51.020;6.764;2023-04-03T01:17:37;9.27;;;8.27;;
11837;SDS011;5978;51.020;6.764;2023-04-03T01:25:34;7.60;;;6.90;;
11837;SDS011;5978;51.020;6.764;2023-04-03T01:28:02;7.85;;;6.82;;
11837;SDS011;5978;51.020;6.764;2023-04-03T01:30:33;8.35;;;7.40;;
11837;SDS011;5978;51.020;6.764;2023-04-03T01:33:02;10.95;;;8.73;;
11837;SDS011;5978;51.020;6.764;2023-04-03T01:35:28;7.57;;;6.82;;
11837;SDS011;5978;51.020;6.764;2023-04-03T01:37:53;10.60;;;7.50;;
11837;SDS011;5978;51.020;6.764;2023-04-03T01:40:19;8.80;;;7.90;;
11837;SDS011;5978;51.020;6.764;2023-04-03T01:42:45;11.40;;;7.60;;
11837;SDS011;5978;51.020;6.764;2023-04-03T01:45:11;10.30;;;7.80;;
11837;SDS011;5978;51.020;6.764;2023-04-03T01:47:37;9.23;;;7.80;;
11837;SDS011;5978;51.020;6.764;2023-04-03T01:50:02;10.87;;;7.90;;
11837;SDS011;5978;51.020;6.764;2023-04-03T01:52:28;8.55;;;7.68;;
11837;SDS011;5978;51.020;6.764;2023-04-03T01:54:55;10.88;;;8.70;;
11837;SDS011;5978;51.020;6.764;2023-04-03T01:57:21;9.87;;;8.20;;
11837;SDS011;5978;51.020;6.764;2023-04-03T01:59:46;10.00;;;8.13;;
11837;SDS011;5978;51.020;6.764;2023-04-03T02:02:12;10.83;;;8.03;;
11837;SDS011;5978;51.020;6.764;2023-04-03T02:04:40;11.35;;;8.23;;
11837;SDS011;5978;51.020;6.764;2023-04-03T02:07:06;11.70;;;8.07;;
11837;SDS011;5978;51.020;6.764;2023-04-03T02:09:31;7.80;;;7.10;;
11837;SDS011;5978;51.020;6.764;2023-04-03T02:11:57;9.40;;;7.57;;
11837;SDS011;5978;51.020;6.764;2023-04-03T02:14:23;10.47;;;8.87;;
11837;SDS011;5978;51.020;6.764;2023-04-03T02:16:49;11.60;;;8.70;;
11837;SDS011;5978;51.020;6.764;2023-04-03T02:19:14;8.73;;;7.40;;
11837;SDS011;5978;51.020;6.764;2023-04-03T02:21:40;10.33;;;7.67;;
11837;SDS011;5978;51.020;6.764;2023-04-03T02:24:06;9.60;;;6.97;;
11837;SDS011;5978;51.020;6.764;2023-04-03T02:26:32;10.88;;;8.48;;
11837;SDS011;5978;51.020;6.764;2023-04-03T02:28:58;9.33;;;8.03;;
11837;SDS011;5978;51.020;6.764;2023-04-03T02:31:23;10.90;;;8.80;;
11837;SDS011;5978;51.020;6.764;2023-04-03T02:33:49;8.80;;;8.00;;
11837;SDS011;5978;51.020;6.764;2023-04-03T02:36:15;10.20;;;8.77;;
11837;SDS011;5978;51.020;6.764;2023-04-03T02:38:41;8.95;;;8.15;;
11837;SDS011;5978;51.020;6.764;2023-04-03T02:41:09;11.10;;;9.00;;
11837;SDS011;5978;51.020;6.764;2023-04-03T02:43:37;9.18;;;8.27;;
11837;SDS011;5978;51.020;6.764;2023-04-03T02:46:03;10.45;;;8.63;;
11837;SDS011;5978;51.020;6.764;2023-04-03T02:48:29;9.65;;;8.75;;
11837;SDS011;5978;51.020;6.764;2023-04-03T02:50:55;9.17;;;8.10;;
11837;SDS011;5978;51.020;6.764;2023-04-03T02:53:21;9.67;;;8.30;;
11837;SDS011;5978;51.020;6.764;2023-04-03T02:55:47;7.85;;;6.85;;
11837;SDS011;5978;51.020;6.764;2023-04-03T02:58:13;12.43;;;8.40;;
11837;SDS011;5978;51.020;6.764;2023-04-03T03:00:38;7.83;;;7.07;;
11837;SDS011;5978;51.020;6.764;2023-04-03T03:03:05;8.80;;;7.90;;
11837;SDS011;5978;51.020;6.764;2023-04-03T03:05:30;9.03;;;6.50;;
11837;SDS011;5978;51.020;6.764;2023-04-03T03:07:56;9.30;;;8.00;;
11837;SDS011;5978;51.020;6.764;2023-04-03T03:10:22;10.87;;;8.50;;
11837;SDS011;5978;51.020;6.764;2023-04-03T03:12:47;11.60;;;8.30;;
11837;SDS011;5978;51.020;6.764;2023-04-03T03:15:14;8.13;;;7.32;;
11837;SDS011;5978;51.020;6.764;2023-04-03T03:17:41;9.55;;;8.32;;
11837;SDS011;5978;51.020;6.764;2023-04-03T03:20:07;8.50;;;7.67;;
11837;SDS011;5978;51.020;6.764;2023-04-03T03:22:33;13.48;;;8.18;;
11837;SDS011;5978;51.020;6.764;2023-04-03T03:25:00;7.68;;;6.80;;
11837;SDS011;5978;51.020;6.764;2023-04-03T03:27:27;8.30;;;7.00;;
11837;SDS011;5978;51.020;6.764;2023-04-03T03:29:53;9.80;;;7.75;;
11837;SDS011;5978;51.020;6.764;2023-04-03T03:32:19;7.80;;;6.90;;
11837;SDS011;5978;51.020;6.764;2023-04-03T03:34:44;10.90;;;8.03;;
11837;SDS011;5978;51.020;6.764;2023-04-03T03:37:10;9.97;;;7.37;;
11837;SDS011;5978;51.020;6.764;2023-04-03T03:39:36;12.10;;;8.73;;
11837;SDS011;5978;51.020;6.764;2023-04-03T03:42:01;10.30;;;8.00;;
11837;SDS011;5978;51.020;6.764;2023-04-03T03:44:27;12.73;;;8.00;;
11837;SDS011;5978;51.020;6.764;2023-04-03T03:46:54;16.27;;;8.35;;
11837;SDS011;5978;51.020;6.764;2023-04-03T03:49:21;8.75;;;7.80;;
11837;SDS011;5978;51.020;6.764;2023-04-03T03:51:47;11.40;;;7.60;;
11837;SDS011;5978;51.020;6.764;2023-04-03T03:54:13;11.30;;;8.60;;
11837;SDS011;5978;51.020;6.764;2023-04-03T03:56:39;10.30;;;7.10;;
11837;SDS011;5978;51.020;6.764;2023-04-03T03:59:05;13.63;;;8.68;;
11837;SDS011;5978;51.020;6.764;2023-04-03T04:01:31;12.70;;;7.53;;
11837;SDS011;5978;51.020;6.764;2023-04-03T04:03:57;8.95;;;7.65;;
11837;SDS011;5978;51.020;6.764;2023-04-03T04:06:23;8.43;;;7.33;;
11837;SDS011;5978;51.020;6.764;2023-04-03T04:08:49;11.90;;;7.53;;
11837;SDS011;5978;51.020;6.764;2023-04-03T04:11:15;8.07;;;6.60;;
11837;SDS011;5978;51.020;6.764;2023-04-03T04:13:40;7.47;;;6.13;;
11837;SDS011;5978;51.020;6.764;2023-04-03T04:16:07;8.63;;;7.07;;
11837;SDS011;5978;51.020;6.764;2023-04-03T04:18:33;9.43;;;6.78;;
11837;SDS011;5978;51.020;6.764;2023-04-03T04:20:59;8.20;;;6.60;;
11837;SDS011;5978;51.020;6.764;2023-04-03T04:23:25;8.53;;;6.73;;
11837;SDS011;5978;51.020;6.764;2023-04-03T04:25:50;10.20;;;6.17;;
11837;SDS011;5978;51.020;6.764;2023-04-03T04:28:16;8.77;;;6.53;;
11837;SDS011;5978;51.020;6.764;2023-04-03T04:30:43;10.55;;;6.15;;
11837;SDS011;5978;51.020;6.764;2023-04-03T04:33:09;6.90;;;6.20;;
11837;SDS011;5978;51.020;6.764;2023-04-03T04:35:35;10.38;;;6.90;;
11837;SDS011;5978;51.020;6.764;2023-04-03T04:38:00;7.40;;;6.70;;
11837;SDS011;5978;51.020;6.764;2023-04-03T04:40:26;7.90;;;6.70;;
11837;SDS011;5978;51.020;6.764;2023-04-03T04:42:52;6.73;;;5.80;;
11837;SDS011;5978;51.020;6.764;2023-04-03T04:45:18;7.93;;;5.17;;
11837;SDS011;5978;51.020;6.764;2023-04-03T04:47:44;5.78;;;5.05;;
11837;SDS011;5978;51.020;6.764;2023-04-03T04:50:10;5.47;;;4.93;;
11837;SDS011;5978;51.020;6.764;2023-04-03T04:52:36;6.68;;;6.03;;
11837;SDS011;5978;51.020;6.764;2023-04-03T04:55:03;9.82;;;5.82;;
11837;SDS011;5978;51.020;6.764;2023-04-03T04:57:29;7.78;;;4.93;;
11837;SDS011;5978;51.020;6.764;2023-04-03T04:59:55;7.93;;;6.03;;
11837;SDS011;5978;51.020;6.764;2023-04-03T05:02:21;6.47;;;5.00;;
11837;SDS011;5978;51.020;6.764;2023-04-03T05:04:46;9.60;;;6.10;;
11837;SDS011;5978;51.020;6.764;2023-04-03T05:07:12;5.53;;;4.93;;
11837;SDS011;5978;51.020;6.764;2023-04-03T05:09:38;10.63;;;6.00;;
11837;SDS011;5978;51.020;6.764;2023-04-03T05:12:03;6.67;;;5.17;;
11837;SDS011;5978;51.020;6.764;2023-04-03T05:14:30;9.18;;;5.40;;
11837;SDS011;5978;51.020;6.764;2023-04-03T05:16:55;7.17;;;4.63;;
11837;SDS011;5978;51.020;6.764;2023-04-03T05:19:22;5.60;;;4.60;;
11837;SDS011;5978;51.020;6.764;2023-04-03T05:21:48;6.60;;;5.40;;
11837;SDS011;5978;51.020;6.764;2023-04-03T05:24:14;7.27;;;6.40;;
11837;SDS011;5978;51.020;6.764;2023-04-03T05:26:41;9.43;;;5.30;;
11837;SDS011;5978;51.020;6.764;2023-04-03T05:29:07;5.18;;;4.57;;
11837;SDS011;5978;51.020;6.764;2023-04-03T05:31:33;10.07;;;4.65;;
11837;SDS011;5978;51.020;6.764;2023-04-03T05:33:59;6.72;;;5.68;;
11837;SDS011;5978;51.020;6.764;2023-04-03T05:36:25;7.03;;;6.33;;
11837;SDS011;5978;51.020;6.764;2023-04-03T05:38:51;7.87;;;6.17;;
11837;SDS011;5978;51.020;6.764;2023-04-03T05:41:17;10.07;;;6.55;;
11837;SDS011;5978;51.020;6.764;2023-04-03T05:43:42;12.73;;;6.23;;
11837;SDS011;5978;51.020;6.764;2023-04-03T05:46:10;6.67;;;5.90;;
11837;SDS011;5978;51.020;6.764;2023-04-03T05:48:43;7.93;;;5.30;;
11837;SDS011;5978;51.020;6.764;2023-04-03T05:51:18;5.70;;;5.07;;
11837;SDS011;5978;51.020;6.764;2023-04-03T05:53:47;5.82;;;5.32;;
11837;SDS011;5978;51.020;6.764;2023-04-03T05:56:17;7.60;;;5.15;;
11837;SDS011;5978;51.020;6.764;2023-04-03T05:58:43;9.27;;;4.90;;
11837;SDS011;5978;51.020;6.764;2023-04-03T06:01:08;5.63;;;4.67;;
11837;SDS011;5978;51.020;6.764;2023-04-03T06:03:34;6.70;;;5.13;;
11837;SDS011;5978;51.020;6.764;2023-04-03T06:06:02;4.97;;;4.43;;
11837;SDS011;5978;51.020;6.764;2023-04-03T06:08:29;5.72;;;4.63;;
11837;SDS011;5978;51.020;6.764;2023-04-03T06:10:54;7.23;;;4.17;;
11837;SDS011;5978;51.020;6.764;2023-04-03T06:13:21;6.40;;;4.53;;
11837;SDS011;5978;51.020;6.764;2023-04-03T06:15:47;6.80;;;4.07;;
11837;SDS011;5978;51.020;6.764;2023-04-03T06:18:13;9.45;;;4.25;;
11837;SDS011;5978;51.020;6.764;2023-04-03T06:20:39;5.40;;;3.97;;
11837;SDS011;5978;51.020;6.764;2023-04-03T06:23:04;10.53;;;4.27;;
11837;SDS011;5978;51.020;6.764;2023-04-03T06:25:30;4.73;;;3.83;;
11837;SDS011;5978;51.020;6.764;2023-04-03T06:27:57;6.32;;;4.28;;
11837;SDS011;5978;51.020;6.764;2023-04-03T06:30:22;4.60;;;3.75;;
11837;SDS011;5978;51.020;6.764;2023-04-03T06:32:48;7.57;;;4.80;;
11837;SDS011;5978;51.020;6.764;2023-04-03T06:35:14;8.70;;;4.57;;
11837;SDS011;5978;51.020;6.764;2023-04-03T06:37:39;7.10;;;3.60;;
11837;SDS011;5978;51.020;6.764;2023-04-03T06:40:05;4.43;;;3.73;;
11837;SDS011;5978;51.020;6.764;2023-04-03T06:42:32;4.45;;;3.42;;
11837;SDS011;5978;51.020;6.764;2023-04-03T06:44:58;4.67;;;3.33;;
11837;SDS011;5978;51.020;6.764;2023-04-03T06:47:24;5.10;;;3.90;;
11837;SDS011;5978;51.020;6.764;2023-04-03T06:49:49;8.50;;;3.92;;
11837;SDS011;5978;51.020;6.764;2023-04-03T06:52:15;3.57;;;3.27;;
11837;SDS011;5978;51.020;6.764;2023-04-03T06:54:41;4.47;;;4.10;;
11837;SDS011;5978;51.020;6.764;2023-04-03T06:57:07;7.57;;;4.30;;
11837;SDS011;5978;51.020;6.764;2023-04-03T06:59:33;7.63;;;3.77;;
11837;SDS011;5978;51.020;6.764;2023-04-03T07:01:59;4.90;;;3.90;;
11837;SDS011;5978;51.020;6.764;2023-04-03T07:04:25;4.95;;;3.25;;
11837;SDS011;5978;51.020;6.764;2023-04-03T07:06:51;7.23;;;3.13;;
11837;SDS011;5978;51.020;6.764;2023-04-03T07:09:17;3.75;;;3.10;;
11837;SDS011;5978;51.020;6.764;2023-04-03T07:11:43;6.05;;;3.90;;
11837;SDS011;5978;51.020;6.764;2023-04-03T07:14:09;4.40;;;3.55;;
11837;SDS011;5978;51.020;6.764;2023-04-03T07:16:35;3.57;;;3.20;;
11837;SDS011;5978;51.020;6.764;2023-04-03T07:19:01;3.37;;;3.17;;
11837;SDS011;5978;51.020;6.764;2023-04-03T07:21:28;7.30;;;3.92;;
11837;SDS011;5978;51.020;6.764;2023-04-03T07:23:54;3.50;;;3.20;;
11837;SDS011;5978;51.020;6.764;2023-04-03T07:26:20;4.70;;;2.90;;
11837;SDS011;5978;51.020;6.764;2023-04-03T07:28:47;5.07;;;3.28;;
11837;SDS011;5978;51.020;6.764;2023-04-03T07:31:14;3.17;;;2.88;;
11837;SDS011;5978;51.020;6.764;2023-04-03T07:33:40;3.47;;;2.50;;
11837;SDS011;5978;51.020;6.764;2023-04-03T07:36:06;3.97;;;2.87;;
11837;SDS011;5978;51.020;6.764;2023-04-03T07:38:34;6.28;;;2.25;;
11837;SDS011;5978;51.020;6.764;2023-04-03T07:41:00;3.03;;;2.80;;
11837;SDS011;5978;51.020;6.764;2023-04-03T07:43:26;4.97;;;3.15;;
11837;SDS011;5978;51.020;6.764;2023-04-03T07:45:52;3.73;;;2.50;;
11837;SDS011;5978;51.020;6.764;2023-04-03T07:48:20;4.40;;;2.60;;
11837;SDS011;5978;51.020;6.764;2023-04-03T07:50:50;3.97;;;3.10;;
11837;SDS011;5978;51.020;6.764;2023-04-03T07:53:16;3.95;;;2.50;;
11837;SDS011;5978;51.020;6.764;2023-04-03T07:55:43;4.43;;;2.53;;
11837;SDS011;5978;51.020;6.764;2023-04-03T07:58:12;5.50;;;2.47;;
11837;SDS011;5978;51.020;6.764;2023-04-03T08:00:40;4.32;;;3.45;;
11837;SDS011;5978;51.020;6.764;2023-04-03T08:03:06;5.93;;;1.95;;
11837;SDS011;5978;51.020;6.764;2023-04-03T08:05:37;3.83;;;2.70;;
11837;SDS011;5978;51.020;6.764;2023-04-03T08:08:05;2.97;;;2.65;;
11837;SDS011;5978;51.020;6.764;2023-04-03T08:10:32;4.15;;;2.65;;
11837;SDS011;5978;51.020;6.764;2023-04-03T08:12:58;3.17;;;2.05;;
11837;SDS011;5978;51.020;6.764;2023-04-03T08:15:23;3.57;;;2.83;;
11837;SDS011;5978;51.020;6.764;2023-04-03T08:17:49;4.57;;;2.20;;
11837;SDS011;5978;51.020;6.764;2023-04-03T08:20:15;3.92;;;2.10;;
11837;SDS011;5978;51.020;6.764;2023-04-03T08:22:41;7.17;;;2.03;;
11837;SDS011;5978;51.020;6.764;2023-04-03T08:25:07;4.10;;;1.70;;
11837;SDS011;5978;51.020;6.764;2023-04-03T08:27:33;2.63;;;1.92;;
11837;SDS011;5978;51.020;6.764;2023-04-03T08:29:59;2.23;;;1.83;;
11837;SDS011;5978;51.020;6.764;2023-04-03T08:32:25;3.53;;;2.27;;
11837;SDS011;5978;51.020;6.764;2023-04-03T08:34:50;11.00;;;2.10;;
11837;SDS011;5978;51.020;6.764;2023-04-03T08:37:16;2.13;;;1.67;;
11837;SDS011;5978;51.020;6.764;2023-04-03T08:39:42;2.80;;;1.90;;
11837;SDS011;5978;51.020;6.764;2023-04-03T08:42:16;3.00;;;1.65;;
11837;SDS011;5978;51.020;6.764;2023-04-03T08:45:11;2.92;;;1.70;;
11837;SDS011;5978;51.020;6.764;2023-04-03T08:47:45;2.47;;;1.75;;
11837;SDS011;5978;51.020;6.764;2023-04-03T08:50:19;2.35;;;2.00;;
11837;SDS011;5978;51.020;6.764;2023-04-03T08:52:51;4.18;;;1.65;;
11837;SDS011;5978;51.020;6.764;2023-04-03T08:57:51;1.67;;;1.30;;
11837;SDS011;5978;51.020;6.764;2023-04-03T09:03:15;3.20;;;1.58;;
11837;SDS011;5978;51.020;6.764;2023-04-03T09:05:56;1.73;;;1.25;;
11837;SDS011;5978;51.020;6.764;2023-04-03T09:08:37;4.18;;;1.38;;
11837;SDS011;5978;51.020;6.764;2023-04-03T09:12:19;3.05;;;1.38;;
11837;SDS011;5978;51.020;6.764;2023-04-03T09:17:02;1.77;;;1.30;;
11837;SDS011;5978;51.020;6.764;2023-04-03T09:19:41;3.17;;;1.35;;
11837;SDS011;5978;51.020;6.764;2023-04-03T09:24:45;1.67;;;1.45;;
11837;SDS011;5978;51.020;6.764;2023-04-03T09:27:15;2.40;;;1.40;;
11837;SDS011;5978;51.020;6.764;2023-04-03T09:29:42;4.33;;;1.20;;
11837;SDS011;5978;51.020;6.764;2023-04-03T09:35:01;1.70;;;1.35;;
11837;SDS011;5978;51.020;6.764;2023-04-03T09:37:42;2.03;;;1.50;;
11837;SDS011;5978;51.020;6.764;2023-04-03T09:42:53;6.97;;;1.63;;
11837;SDS011;5978;51.020;6.764;2023-04-03T09:45:31;1.77;;;1.40;;
11837;SDS011;5978;51.020;6.764;2023-04-03T09:50:37;2.90;;;1.30;;
11837;SDS011;5978;51.020;6.764;2023-04-03T09:53:34;2.20;;;1.45;;
11837;SDS011;5978;51.020;6.764;2023-04-03T09:56:17;4.32;;;1.40;;
11837;SDS011;5978;51.020;6.764;2023-04-03T09:58:48;6.20;;;1.70;;
11837;SDS011;5978;51.020;6.764;2023-04-03T10:01:31;2.63;;;1.00;;
11837;SDS011;5978;51.020;6.764;2023-04-03T10:04:20;1.30;;;1.10;;
11837;SDS011;5978;51.020;6.764;2023-04-03T10:06:51;1.38;;;0.90;;
11837;SDS011;5978;51.020;6.764;2023-04-03T10:14:34;4.75;;;1.27;;
11837;SDS011;5978;51.020;6.764;2023-04-03T10:23:00;2.25;;;1.40;;
11837;SDS011;5978;51.020;6.764;2023-04-03T10:30:50;3.40;;;1.47;;
11837;SDS011;5978;51.020;6.764;2023-04-03T10:44:40;2.60;;;1.47;;
11837;SDS011;5978;51.020;6.764;2023-04-03T10:47:10;4.83;;;1.60;;
11837;SDS011;5978;51.020;6.764;2023-04-03T10:58:34;3.83;;;1.73;;
11837;SDS011;5978;51.020;6.764;2023-04-03T11:01:16;5.47;;;1.93;;
11837;SDS011;5978;51.020;6.764;2023-04-03T11:03:56;1.43;;;1.33;;
11837;SDS011;5978;51.020;6.764;2023-04-03T11:06:24;1.30;;;1.00;;
11837;SDS011;5978;51.020;6.764;2023-04-03T11:08:55;1.83;;;1.50;;
11837;SDS011;5978;51.020;6.764;2023-04-03T11:11:25;5.37;;;1.93;;
11837;SDS011;5978;51.020;6.764;2023-04-03T11:13:57;3.93;;;1.60;;
11837;SDS011;5978;51.020;6.764;2023-04-03T11:16:28;3.00;;;1.77;;
11837;SDS011;5978;51.020;6.764;2023-04-03T11:19:10;2.70;;;1.47;;
11837;SDS011;5978;51.020;6.764;2023-04-03T11:24:41;3.80;;;1.37;;
11837;SDS011;5978;51.020;6.764;2023-04-03T11:27:16;3.87;;;1.40;;
11837;SDS011;5978;51.020;6.764;2023-04-03T11:29:47;1.40;;;1.30;;
11837;SDS011;5978;51.020;6.764;2023-04-03T11:35:06;3.10;;;1.33;;
11837;SDS011;5978;51.020;6.764;2023-04-03T11:37:34;1.40;;;1.10;;
11837;SDS011;5978;51.020;6.764;2023-04-03T11:42:42;2.33;;;1.40;;
11837;SDS011;5978;51.020;6.764;2023-04-03T11:50:52;4.63;;;1.43;;
11837;SDS011;5978;51.020;6.764;2023-04-03T11:56:26;2.10;;;1.23;;
11837;SDS011;5978;51.020;6.764;2023-04-03T12:01:52;2.03;;;1.00;;
11837;SDS011;5978;51.020;6.764;2023-04-03T12:04:23;2.63;;;1.37;;
11837;SDS011;5978;51.020;6.764;2023-04-03T12:06:52;3.90;;;1.20;;
11837;SDS011;5978;51.020;6.764;2023-04-03T12:12:22;1.30;;;1.10;;
11837;SDS011;5978;51.020;6.764;2023-04-03T12:14:55;2.73;;;2.50;;
11837;SDS011;5978;51.020;6.764;2023-04-03T12:17:22;1.20;;;1.10;;
11837;SDS011;5978;51.020;6.764;2023-04-03T12:19:51;2.23;;;1.37;;
11837;SDS011;5978;51.020;6.764;2023-04-03T12:22:18;2.93;;;1.10;;
11837;SDS011;5978;51.020;6.764;2023-04-03T12:24:46;1.50;;;0.90;;
11837;SDS011;5978;51.020;6.764;2023-04-03T12:27:33;2.03;;;1.20;;
11837;SDS011;5978;51.020;6.764;2023-04-03T12:30:16;1.30;;;1.13;;
11837;SDS011;5978;51.020;6.764;2023-04-03T12:38:30;1.30;;;1.20;;
11837;SDS011;5978;51.020;6.764;2023-04-03T12:48:46;1.20;;;1.00;;
11837;SDS011;5978;51.020;6.764;2023-04-03T12:51:19;1.53;;;0.90;;
11837;SDS011;5978;51.020;6.764;2023-04-03T12:53:48;1.17;;;1.00;;
11837;SDS011;5978;51.020;6.764;2023-04-03T12:56:21;1.50;;;1.00;;
11837;SDS011;5978;51.020;6.764;2023-04-03T12:58:47;1.30;;;1.00;;
11837;SDS011;5978;51.020;6.764;2023-04-03T13:01:16;2.40;;;1.17;;
11837;SDS011;5978;51.020;6.764;2023-04-03T13:03:47;1.47;;;1.07;;
11837;SDS011;5978;51.020;6.764;2023-04-03T13:06:17;1.37;;;1.07;;
11837;SDS011;5978;51.020;6.764;2023-04-03T13:08:56;1.60;;;1.40;;
11837;SDS011;5978;51.020;6.764;2023-04-03T13:11:23;4.30;;;1.40;;
11837;SDS011;5978;51.020;6.764;2023-04-03T13:13:57;1.43;;;1.30;;
11837;SDS011;5978;51.020;6.764;2023-04-03T13:16:25;2.30;;;1.10;;
11837;SDS011;5978;51.020;6.764;2023-04-03T13:18:54;1.30;;;1.10;;
11837;SDS011;5978;51.020;6.764;2023-04-03T13:21:24;1.90;;;1.40;;
11837;SDS011;5978;51.020;6.764;2023-04-03T13:23:56;4.13;;;1.10;;
11837;SDS011;5978;51.020;6.764;2023-04-03T13:26:29;2.93;;;1.10;;
11837;SDS011;5978;51.020;6.764;2023-04-03T13:29:01;1.43;;;0.90;;
11837;SDS011;5978;51.020;6.764;2023-04-03T13:31:30;3.63;;;2.07;;
11837;SDS011;5978;51.020;6.764;2023-04-03T13:34:16;3.20;;;1.20;;
11837;SDS011;5978;51.020;6.764;2023-04-03T13:36:45;1.70;;;1.07;;
11837;SDS011;5978;51.020;6.764;2023-04-03T13:39:23;1.30;;;0.77;;
11837;SDS011;5978;51.020;6.764;2023-04-03T13:41:50;3.10;;;1.10;;
11837;SDS011;5978;51.020;6.764;2023-04-03T13:46:46;2.30;;;1.27;;
11837;SDS011;5978;51.020;6.764;2023-04-03T13:51:54;1.70;;;1.37;;
11837;SDS011;5978;51.020;6.764;2023-04-03T13:56:46;3.00;;;1.30;;
11837;SDS011;5978;51.020;6.764;2023-04-03T13:59:36;2.83;;;1.30;;
11837;SDS011;5978;51.020;6.764;2023-04-03T14:04:28;2.03;;;1.53;;
11837;SDS011;5978;51.020;6.764;2023-04-03T14:06:56;1.80;;;1.30;;
11837;SDS011;5978;51.020;6.764;2023-04-03T14:09:23;4.80;;;1.30;;
11837;SDS011;5978;51.020;6.764;2023-04-03T14:11:55;3.23;;;2.60;;
11837;SDS011;5978;51.020;6.764;2023-04-03T14:14:26;2.30;;;1.13;;
11837;SDS011;5978;51.020;6.764;2023-04-03T14:16:56;3.60;;;1.30;;
11837;SDS011;5978;51.020;6.764;2023-04-03T14:19:28;2.10;;;1.30;;
11837;SDS011;5978;51.020;6.764;2023-04-03T14:21:57;4.20;;;1.50;;
11837;SDS011;5978;51.020;6.764;2023-04-03T14:24:24;3.53;;;1.40;;
11837;SDS011;5978;51.020;6.764;2023-04-03T14:26:51;2.63;;;1.33;;
11837;SDS011;5978;51.020;6.764;2023-04-03T14:29:18;2.93;;;1.57;;
11837;SDS011;5978;51.020;6.764;2023-04-03T14:31:44;2.90;;;1.50;;
11837;SDS011;5978;51.020;6.764;2023-04-03T14:34:11;2.47;;;1.70;;
11837;SDS011;5978;51.020;6.764;2023-04-03T14:36:38;2.23;;;1.53;;
11837;SDS011;5978;51.020;6.764;2023-04-03T14:39:06;1.97;;;1.37;;
11837;SDS011;5978;51.020;6.764;2023-04-03T14:41:33;3.30;;;1.20;;
11837;SDS011;5978;51.020;6.764;2023-04-03T14:43:59;1.50;;;1.20;;
11837;SDS011;5978;51.020;6.764;2023-04-03T14:46:26;1.70;;;1.20;;
11837;SDS011;5978;51.020;6.764;2023-04-03T14:48:55;2.07;;;1.40;;
11837;SDS011;5978;51.020;6.764;2023-04-03T14:51:21;2.03;;;1.57;;
11837;SDS011;5978;51.020;6.764;2023-04-03T14:53:47;2.43;;;1.33;;
11837;SDS011;5978;51.020;6.764;2023-04-03T14:56:15;2.70;;;1.70;;
11837;SDS011;5978;51.020;6.764;2023-04-03T14:58:50;1.70;;;1.43;;
11837;SDS011;5978;51.020;6.764;2023-04-03T15:01:23;2.37;;;1.60;;
11837;SDS011;5978;51.020;6.764;2023-04-03T15:03:49;1.73;;;0.90;;
11837;SDS011;5978;51.020;6.764;2023-04-03T15:06:15;3.13;;;2.10;;
11837;SDS011;5978;51.020;6.764;2023-04-03T15:08:41;2.27;;;1.43;;
11837;SDS011;5978;51.020;6.764;2023-04-03T15:11:09;2.47;;;1.37;;
11837;SDS011;5978;51.020;6.764;2023-04-03T15:13:36;3.83;;;2.00;;
11837;SDS011;5978;51.020;6.764;2023-04-03T15:16:04;1.67;;;1.43;;
11837;SDS011;5978;51.020;6.764;2023-04-03T15:18:32;2.13;;;1.10;;
11837;SDS011;5978;51.020;6.764;2023-04-03T15:21:02;2.67;;;1.70;;
11837;SDS011;5978;51.020;6.764;2023-04-03T15:23:29;2.90;;;1.20;;
11837;SDS011;5978;51.020;6.764;2023-04-03T15:25:55;1.57;;;1.30;;
11837;SDS011;5978;51.020;6.764;2023-04-03T15:28:28;1.60;;;1.10;;
11837;SDS011;5978;51.020;6.764;2023-04-03T15:30:57;2.03;;;1.70;;
11837;SDS011;5978;51.020;6.764;2023-04-03T15:33:24;1.40;;;1.30;;
11837;SDS011;5978;51.020;6.764;2023-04-03T15:35:50;1.70;;;1.60;;
11837;SDS011;5978;51.020;6.764;2023-04-03T15:38:16;2.70;;;1.50;;
11837;SDS011;5978;51.020;6.764;2023-04-03T15:40:42;2.83;;;1.43;;
11837;SDS011;5978;51.020;6.764;2023-04-03T15:43:09;1.50;;;1.40;;
11837;SDS011;5978;51.020;6.764;2023-04-03T15:45:35;4.37;;;1.47;;
11837;SDS011;5978;51.020;6.764;2023-04-03T15:48:03;1.70;;;1.23;;
11837;SDS011;5978;51.020;6.764;2023-04-03T15:50:29;3.00;;;1.60;;
11837;SDS011;5978;51.020;6.764;2023-04-03T15:52:55;2.93;;;1.70;;
11837;SDS011;5978;51.020;6.764;2023-04-03T15:55:25;2.03;;;1.33;;
11837;SDS011;5978;51.020;6.764;2023-04-03T15:57:52;2.33;;;1.23;;
11837;SDS011;5978;51.020;6.764;2023-04-03T16:00:18;1.40;;;1.30;;
11837;SDS011;5978;51.020;6.764;2023-04-03T16:02:45;1.63;;;1.33;;
11837;SDS011;5978;51.020;6.764;2023-04-03T16:05:12;1.53;;;1.10;;
11837;SDS011;5978;51.020;6.764;2023-04-03T16:07:40;2.43;;;1.40;;
11837;SDS011;5978;51.020;6.764;2023-04-03T16:10:07;2.33;;;1.87;;
11837;SDS011;5978;51.020;6.764;2023-04-03T16:12:34;3.40;;;1.37;;
11837;SDS011;5978;51.020;6.764;2023-04-03T16:15:00;2.90;;;1.37;;
11837;SDS011;5978;51.020;6.764;2023-04-03T16:17:26;2.70;;;1.30;;
11837;SDS011;5978;51.020;6.764;2023-04-03T16:19:53;2.60;;;1.77;;
11837;SDS011;5978;51.020;6.764;2023-04-03T16:22:19;1.93;;;1.33;;
11837;SDS011;5978;51.020;6.764;2023-04-03T16:24:46;1.57;;;1.30;;
11837;SDS011;5978;51.020;6.764;2023-04-03T16:27:11;3.50;;;1.83;;
11837;SDS011;5978;51.020;6.764;2023-04-03T16:29:37;3.10;;;1.60;;
11837;SDS011;5978;51.020;6.764;2023-04-03T16:32:03;1.97;;;1.47;;
11837;SDS011;5978;51.020;6.764;2023-04-03T16:34:29;1.60;;;1.40;;
11837;SDS011;5978;51.020;6.764;2023-04-03T16:36:58;2.00;;;1.50;;
11837;SDS011;5978;51.020;6.764;2023-04-03T16:39:24;1.77;;;1.00;;
11837;SDS011;5978;51.020;6.764;2023-04-03T16:41:50;2.53;;;1.87;;
11837;SDS011;5978;51.020;6.764;2023-04-03T16:44:16;2.70;;;1.47;;
11837;SDS011;5978;51.020;6.764;2023-04-03T16:46:42;1.67;;;1.50;;
11837;SDS011;5978;51.020;6.764;2023-04-03T16:49:08;3.67;;;1.57;;
11837;SDS011;5978;51.020;6.764;2023-04-03T16:51:34;3.03;;;1.27;;
11837;SDS011;5978;51.020;6.764;2023-04-03T16:54:00;2.27;;;1.60;;
11837;SDS011;5978;51.020;6.764;2023-04-03T16:56:25;1.70;;;1.40;;
11837;SDS011;5978;51.020;6.764;2023-04-03T16:58:54;3.27;;;1.30;;